2022年8月11日 17:002022年8月12日 02:00有效
时间
星期四
17:00
星期四
18:00
星期四
19:00
星期四
20:00
星期四
21:00
星期四
22:00
星期四
23:00
星期五
00:00
星期五
01:00
代码
VFR
VFR
VFR
VFR
VFR
VFR
VFR
VFR
VFR
天气
天空晴朗
天空晴朗
天空晴朗
天空晴朗
天空晴朗
天空晴朗
天空晴朗
天空晴朗
天空晴朗
能见度
10 km+
10 km+
10 km+
10 km+
10 km+
10 km+
10 km+
10 km+
10 km+
天花板
-
-
-
-
-
-
-
-
-
090°
090°
090°
090°
Var
Var
Var
Var
Var
Var
Var
Var
Var
Var
Var
Var
Var
Var
速度
6 kt
6 kt
6 kt
6 kt
3 kt
3 kt
3 kt
3 kt
3 kt
阵风
温度/星期日
21:09

原版的

TAF LFBA 111400Z 1115/1124 09006KT CAVOK
BECMG 1117/1119 VRB03KT

TAF Agen-La Garenne Airport

Agen-La Garenne Airport是Agen/La Garenne,法国中的中型机场。 该机场有一条跑道: 11/29. 该领域的国际民航组织标志是LFBA 它的国际航空运输协会代码是AGF.

这份报告是针对2022年8月11日 16:00, 当地时间在Agen-La Garenne Airport进行的。 从2022年8月11日 17:00到2022年8月12日 02:00, 当地时间有效.

预报

  • 在星期四 17:00和星期五 02:00之间

    • 风: 风来自090°方向,速度为6 kt。
    • CAVOK: 天气为CAVOK。这意味着在5.000 ft或MSA(最低安全高度)以下(以较高者为准)以下没有云。这也意味着没有观测到积雨云或高耸的积云,可见度为10 km 或者更多或更高。此外,不会有雾,降雨或其他重要天气。

  • 介于星期四 19:00和21:00之间

    • 风: 可变方向的风很小或没有。

白天

今天,太阳从06:56升起,在21:09降落。 这适用于Agen-La Garenne Airport,世界夏令时可能有所不同。 当地时间与世界标准时间之间的时差为+2 小时。 夏令时目前正在进行中。

我们和第三方通过cookies跟踪您在我们网站上的上网行为。如果您继续,我们认为您同意我们的cookie政策。 了解更多